Time;durP1;ratioP1;P1;durP2;ratioP2;P2;SDS_P1;SDS_P2;PMS_P1;PMS_P2;Temp;Humidity;BMP_temperature;BMP_pressure;BME280_temperature;BME280_humidity;BME280_pressure;Samples;Min_cycle;Max_cycle;Signal;HPM_P1;HPM_P2
2023/11/12 00:00:04;;;;;;;1.20;1.10;;;;;;;7.78;70.42;94667.88;6153123;23;20183;-83
2023/11/12 00:02:30;;;;;;;2.60;1.30;;;;;;;7.76;70.78;94661.34;6154714;23;20174;-83
2023/11/12 00:04:56;;;;;;;2.10;1.50;;;;;;;7.72;70.89;94667.81;6151751;23;20179;-82
2023/11/12 00:07:23;;;;;;;1.60;1.40;;;;;;;7.72;70.90;94672.94;6151540;23;20238;-83
2023/11/12 00:09:49;;;;;;;2.27;1.53;;;;;;;7.75;70.83;94665.69;6151980;23;20199;-83
2023/11/12 00:12:18;;;;;;;2.10;1.67;;;;;;;7.75;71.04;94667.44;6152980;23;20175;-82
2023/11/12 00:14:45;;;;;;;2.83;1.83;;;;;;;7.81;70.63;94653.91;6154529;23;20179;-84
2023/11/12 00:17:13;;;;;;;2.33;1.70;;;;;;;7.83;70.65;94650.19;6151919;23;20201;-84
2023/11/12 00:19:39;;;;;;;2.97;2.00;;;;;;;7.87;70.30;94640.38;6151350;23;20171;-84
2023/11/12 00:22:06;;;;;;;4.17;3.20;;;;;;;7.88;70.38;94637.66;6151961;23;20190;-84
2023/11/12 00:24:33;;;;;;;2.60;2.40;;;;;;;7.90;70.02;94629.75;6151661;23;20278;-83
2023/11/12 00:26:59;;;;;;;2.60;2.10;;;;;;;7.96;70.14;94624.69;6151603;23;20254;-84
2023/11/12 00:29:27;;;;;;;3.13;2.37;;;;;;;7.98;69.87;94621.94;6151134;23;20199;-83
2023/11/12 00:31:53;;;;;;;3.90;2.73;;;;;;;7.96;69.93;94603.41;6151579;23;20646;-84
2023/11/12 00:34:20;;;;;;;4.63;2.00;;;;;;;7.92;69.93;94614.97;6151614;23;20182;-83
2023/11/12 00:36:46;;;;;;;3.30;1.80;;;;;;;7.97;70.15;94610.91;6151488;23;20202;-84
2023/11/12 00:39:13;;;;;;;3.07;1.77;;;;;;;7.94;70.57;94624.06;6151450;23;20699;-84
2023/11/12 00:41:39;;;;;;;2.80;1.73;;;;;;;7.95;70.64;94625.66;6151176;23;20257;-84
2023/11/12 00:44:10;;;;;;;1.60;1.40;;;;;;;7.93;70.40;94619.94;6151950;23;20275;-84
2023/11/12 00:46:40;;;;;;;2.40;1.57;;;;;;;7.95;70.27;94624.88;6151295;23;20574;-84
2023/11/12 00:49:07;;;;;;;3.00;1.70;;;;;;;7.92;70.42;94631.16;6151233;23;20285;-84
2023/11/12 00:51:34;;;;;;;1.77;1.60;;;;;;;7.92;70.56;94628.59;6151067;23;20175;-84
2023/11/12 00:54:01;;;;;;;1.80;1.30;;;;;;;7.92;70.48;94631.16;6151414;23;20179;-84
2023/11/12 00:56:27;;;;;;;1.63;1.33;;;;;;;7.89;70.34;94634.06;6151289;23;20530;-84
2023/11/12 00:58:54;;;;;;;1.90;1.60;;;;;;;7.89;70.91;94654.59;6152047;23;20171;-84
2023/11/12 01:01:20;;;;;;;2.00;1.60;;;;;;;7.87;71.76;94684.75;6153625;23;20175;-84
2023/11/12 01:03:48;;;;;;;1.90;1.50;;;;;;;7.82;73.52;94737.50;6151222;23;20175;-84
2023/11/12 01:06:15;;;;;;;2.20;2.00;;;;;;;7.68;74.65;94769.06;6151513;23;20530;-84
2023/11/12 01:08:42;;;;;;;2.47;1.53;;;;;;;7.49;78.16;94834.44;6150550;23;20636;-84
2023/11/12 01:11:08;;;;;;;2.97;1.77;;;;;;;7.49;78.05;94811.41;6151227;23;20646;-84
2023/11/12 01:13:35;;;;;;;2.47;1.70;;;;;;;7.48;78.87;94820.84;6151775;23;20182;-84
2023/11/12 01:16:02;;;;;;;1.67;1.57;;;;;;;7.46;79.39;94833.03;6151765;23;20285;-83
2023/11/12 01:18:31;;;;;;;4.10;2.10;;;;;;;7.45;80.67;94849.34;6150849;23;20174;-82
2023/11/12 01:20:59;;;;;;;2.40;1.87;;;;;;;7.48;80.30;94843.91;6153529;23;20229;-84
2023/11/12 01:23:26;;;;;;;1.60;1.50;;;;;;;7.51;80.44;94847.84;6152205;23;20828;-83
2023/11/12 01:25:54;;;;;;;1.83;1.60;;;;;;;7.53;80.40;94851.03;6152386;23;20200;-82
2023/11/12 01:28:21;;;;;;;1.90;1.70;;;;;;;7.51;80.61;94858.09;6153103;23;20175;-84
2023/11/12 01:30:47;;;;;;;2.30;1.67;;;;;;;7.48;81.34;94874.63;6153160;23;20202;-84
2023/11/12 01:33:14;;;;;;;1.90;1.30;;;;;;;7.51;81.50;94874.25;6152463;23;20182;-84
2023/11/12 01:35:40;;;;;;;2.50;1.40;;;;;;;7.52;81.37;94862.25;6152971;23;20199;-84
2023/11/12 01:38:08;;;;;;;2.50;1.60;;;;;;;7.49;82.41;94880.53;6152951;23;20506;-84
2023/11/12 01:40:38;;;;;;;1.40;1.30;;;;;;;7.51;81.44;94853.75;6153314;23;20185;-84
2023/11/12 01:43:04;;;;;;;1.50;1.40;;;;;;;7.54;81.61;94865.44;6153647;23;20203;-84
2023/11/12 01:45:31;;;;;;;1.43;1.33;;;;;;;7.55;83.11;94883.19;6152917;23;20194;-84
2023/11/12 01:47:57;;;;;;;1.77;1.40;;;;;;;7.60;82.85;94875.78;6153196;23;20175;-84
2023/11/12 01:50:24;;;;;;;3.53;1.60;;;;;;;7.65;83.58;94888.06;6152997;23;20206;-83
2023/11/12 01:52:50;;;;;;;2.10;1.60;;;;;;;7.61;83.57;94887.63;6152853;23;20194;-84
2023/11/12 01:55:20;;;;;;;1.57;1.47;;;;;;;7.61;83.61;94885.06;6152892;23;20175;-84
2023/11/12 01:57:48;;;;;;;2.60;1.63;;;;;;;7.59;84.81;94906.69;6153243;23;20178;-84
2023/11/12 02:00:16;;;;;;;3.27;1.73;;;;;;;7.59;83.96;94897.25;6152994;23;20178;-84
2023/11/12 02:02:42;;;;;;;3.00;2.27;;;;;;;7.62;84.00;94886.66;6152711;23;20186;-83
2023/11/12 02:05:09;;;;;;;2.73;1.90;;;;;;;7.63;83.59;94879.75;6152728;23;20674;-84
2023/11/12 02:07:37;;;;;;;2.47;1.50;;;;;;;7.59;83.10;94863.94;6153116;23;20198;-84
2023/11/12 02:10:09;;;;;;;3.80;2.00;;;;;;;7.57;82.85;94855.63;6152398;23;20206;-84
2023/11/12 02:12:38;;;;;;;2.63;1.87;;;;;;;7.53;83.08;94854.38;6152902;23;20236;-84
2023/11/12 02:15:04;;;;;;;2.00;1.80;;;;;;;7.52;82.88;94844.31;6153164;23;20210;-84
2023/11/12 02:17:32;;;;;;;3.73;2.00;;;;;;;7.50;82.16;94836.03;6152056;23;20179;-84
2023/11/12 02:20:03;;;;;;;3.00;1.70;;;;;;;7.47;82.48;94831.25;6153072;23;20261;-84
2023/11/12 02:22:30;;;;;;;4.10;1.57;;;;;;;7.48;81.82;94817.47;6152335;23;20164;-84
2023/11/12 02:24:58;;;;;;;3.13;1.73;;;;;;;7.48;81.46;94807.25;6152001;23;20183;-84
2023/11/12 02:27:24;;;;;;;2.83;1.57;;;;;;;7.49;81.52;94812.19;6152297;23;20206;-84
2023/11/12 02:29:50;;;;;;;1.90;1.70;;;;;;;7.45;81.75;94807.59;6152609;23;20199;-85
2023/11/12 02:32:18;;;;;;;1.93;1.70;;;;;;;7.43;81.69;94810.31;6152346;23;20179;-84
2023/11/12 02:34:45;;;;;;;2.00;1.80;;;;;;;7.37;81.76;94805.91;6152998;23;20175;-84
2023/11/12 02:37:13;;;;;;;1.90;1.67;;;;;;;7.35;81.77;94805.28;6152408;23;20202;-84
2023/11/12 02:39:41;;;;;;;1.80;1.50;;;;;;;7.36;81.62;94809.44;6152097;23;20175;-84
2023/11/12 02:42:09;;;;;;;1.93;1.70;;;;;;;7.35;81.93;94802.72;6152816;23;20182;-84
2023/11/12 02:44:36;;;;;;;2.13;1.70;;;;;;;7.31;82.02;94809.19;6153000;23;20181;-84
2023/11/12 02:47:04;;;;;;;2.70;1.60;;;;;;;7.28;82.37;94824.88;6151791;23;20948;-84
2023/11/12 02:49:44;;;;;;;3.90;1.90;;;;;;;7.21;82.74;94821.41;6152681;23;20575;-84
2023/11/12 02:52:11;;;;;;;2.00;1.80;;;;;;;7.11;83.37;94826.81;6151815;23;20170;-84
2023/11/12 02:54:37;;;;;;;1.60;1.50;;;;;;;7.07;83.37;94827.31;6152656;23;20221;-84
2023/11/12 02:57:04;;;;;;;2.50;1.67;;;;;;;7.05;83.14;94827.50;6152241;23;20199;-84
2023/11/12 02:59:31;;;;;;;2.00;1.73;;;;;;;6.96;83.19;94823.38;6152292;23;20162;-83
2023/11/12 03:01:58;;;;;;;2.13;1.93;;;;;;;6.90;83.38;94824.91;6152058;23;20198;-83
2023/11/12 03:04:24;;;;;;;2.77;1.80;;;;;;;6.79;83.77;94837.28;6152684;23;20404;-84
2023/11/12 03:06:51;;;;;;;1.93;1.73;;;;;;;6.79;83.75;94843.19;6152231;23;20530;-84
2023/11/12 03:09:17;;;;;;;2.87;1.80;;;;;;;6.81;83.47;94830.22;6152647;23;20186;-83
2023/11/12 03:11:44;;;;;;;1.60;1.50;;;;;;;6.83;83.39;94834.22;6152613;23;20189;-84
2023/11/12 03:14:12;;;;;;;1.83;1.40;;;;;;;6.82;83.75;94832.63;6152464;23;20320;-84
2023/11/12 03:16:39;;;;;;;3.40;1.93;;;;;;;6.86;83.17;94807.50;6152445;23;20199;-84
2023/11/12 03:19:06;;;;;;;2.10;1.60;;;;;;;6.80;82.35;94801.31;6152413;23;20253;-84
2023/11/12 03:21:32;;;;;;;2.97;1.97;;;;;;;6.82;81.96;94784.00;6152094;23;20374;-84
2023/11/12 03:23:59;;;;;;;2.00;1.70;;;;;;;6.77;82.16;94785.50;6151609;23;20244;-84
2023/11/12 03:26:25;;;;;;;2.23;1.50;;;;;;;6.71;81.59;94771.66;6152093;23;20201;-84
2023/11/12 03:28:52;;;;;;;1.53;1.43;;;;;;;6.65;81.98;94771.53;6152165;23;20179;-84
2023/11/12 03:31:18;;;;;;;2.30;1.43;;;;;;;6.62;82.17;94774.44;6152118;23;20205;-84
2023/11/12 03:33:46;;;;;;;1.70;1.43;;;;;;;6.62;81.48;94765.00;6152121;23;20202;-83
2023/11/12 03:36:15;;;;;;;1.87;1.63;;;;;;;6.54;81.58;94759.97;6152848;23;20217;-84
2023/11/12 03:38:41;;;;;;;2.17;1.53;;;;;;;6.53;81.37;94743.03;6153958;23;20179;-84
2023/11/12 03:41:11;;;;;;;2.07;1.50;;;;;;;6.51;81.00;94729.63;6152219;23;20178;-84
2023/11/12 03:43:38;;;;;;;2.63;1.80;;;;;;;6.39;81.01;94726.66;6151922;23;20163;-84
2023/11/12 03:46:06;;;;;;;2.00;1.67;;;;;;;6.39;81.01;94734.31;6152514;23;20205;-84
2023/11/12 03:48:33;;;;;;;3.40;1.40;;;;;;;6.38;80.97;94714.03;6152137;23;20174;-84
2023/11/12 03:51:00;;;;;;;3.63;2.00;;;;;;;6.41;81.00;94708.59;6152299;23;20670;-84
2023/11/12 03:53:27;;;;;;;1.70;1.43;;;;;;;6.38;80.43;94701.25;6151602;23;20187;-84
2023/11/12 03:55:54;;;;;;;2.43;1.70;;;;;;;6.36;80.31;94691.22;6151823;23;20594;-84
2023/11/12 03:58:20;;;;;;;1.73;1.20;;;;;;;6.26;80.44;94682.19;6151380;23;20207;-84
2023/11/12 04:00:47;;;;;;;1.90;1.40;;;;;;;6.27;80.42;94684.59;6152333;23;20182;-84
2023/11/12 04:03:14;;;;;;;1.93;1.57;;;;;;;6.28;80.16;94675.16;6151472;23;20179;-84
2023/11/12 04:05:41;;;;;;;1.53;1.30;;;;;;;6.26;80.23;94669.41;6151533;23;20205;-84
2023/11/12 04:08:09;;;;;;;1.40;1.30;;;;;;;6.25;80.00;94668.63;6151423;23;20178;-84
2023/11/12 04:10:35;;;;;;;2.07;1.40;;;;;;;6.25;79.93;94673.75;6151875;23;20202;-84
2023/11/12 04:13:02;;;;;;;1.40;1.30;;;;;;;6.31;79.23;94657.72;6151432;23;20175;-83
2023/11/12 04:15:29;;;;;;;2.37;1.60;;;;;;;6.27;79.19;94646.25;6151175;23;21485;-82
2023/11/12 04:17:55;;;;;;;2.60;1.40;;;;;;;6.15;79.17;94647.63;6151573;23;20187;-84
2023/11/12 04:20:23;;;;;;;2.50;1.50;;;;;;;6.13;79.56;94641.91;6151982;23;20186;-84
2023/11/12 04:22:50;;;;;;;2.13;1.33;;;;;;;6.05;79.79;94645.31;6151884;23;20690;-83
2023/11/12 04:25:18;;;;;;;1.30;1.20;;;;;;;6.10;79.81;94643.03;6150943;23;20175;-84
2023/11/12 04:27:44;;;;;;;2.17;1.20;;;;;;;6.11;79.39;94628.50;6151204;23;20229;-84
2023/11/12 04:30:11;;;;;;;1.37;1.27;;;;;;;6.10;79.01;94624.34;6151307;23;20195;-84
2023/11/12 04:32:38;;;;;;;2.53;1.30;;;;;;;6.08;78.84;94616.84;6151604;23;20186;-84
2023/11/12 04:35:06;;;;;;;1.27;1.17;;;;;;;6.10;78.98;94621.81;6151124;23;20178;-84
2023/11/12 04:37:32;;;;;;;1.40;1.30;;;;;;;6.10;78.86;94616.69;6151383;23;20194;-84
2023/11/12 04:40:00;;;;;;;1.13;1.00;;;;;;;6.12;78.57;94609.66;6151500;23;20237;-84
2023/11/12 04:42:27;;;;;;;1.53;1.17;;;;;;;6.12;78.42;94594.31;6150866;23;20638;-84
2023/11/12 04:44:54;;;;;;;1.60;1.47;;;;;;;6.06;78.17;94579.66;6151153;23;20179;-85
2023/11/12 04:47:21;;;;;;;1.47;1.30;;;;;;;6.04;78.82;94599.47;6150924;23;20198;-83
2023/11/12 04:49:47;;;;;;;1.87;1.20;;;;;;;5.95;79.06;94615.88;6150834;23;20179;-84
2023/11/12 04:52:13;;;;;;;1.23;1.13;;;;;;;5.99;78.58;94609.41;6150409;23;20182;-82
2023/11/12 04:54:40;;;;;;;2.30;1.10;;;;;;;6.02;78.61;94596.31;6149651;23;20638;-83
2023/11/12 04:57:06;;;;;;;2.27;1.30;;;;;;;6.02;77.82;94578.41;6149538;23;20195;-82
2023/11/12 04:59:34;;;;;;;1.63;1.30;;;;;;;6.00;77.94;94576.03;6150113;23;20185;-84
2023/11/12 05:02:01;;;;;;;1.20;1.00;;;;;;;5.97;78.49;94580.69;6150141;23;20175;-84
2023/11/12 05:04:28;;;;;;;1.53;1.20;;;;;;;6.02;78.29;94580.97;6149857;23;20179;-84
2023/11/12 05:06:54;;;;;;;1.87;1.23;;;;;;;6.00;77.56;94565.81;6150063;23;20217;-84
2023/11/12 05:09:21;;;;;;;1.40;1.10;;;;;;;6.02;77.31;94563.88;6149890;23;20188;-84
2023/11/12 05:11:47;;;;;;;1.70;0.97;;;;;;;6.02;77.50;94561.34;6149543;23;20194;-84
2023/11/12 05:14:14;;;;;;;1.10;0.97;;;;;;;6.01;77.08;94546.19;6149421;23;20179;-84
2023/11/12 05:16:43;;;;;;;1.20;1.10;;;;;;;5.98;76.81;94543.97;6149854;23;20198;-84
2023/11/12 05:19:10;;;;;;;1.33;1.00;;;;;;;6.01;77.12;94546.19;6149610;23;20562;-84
2023/11/12 05:21:36;;;;;;;1.20;1.10;;;;;;;6.03;77.10;94539.13;6149834;23;20181;-84
2023/11/12 05:24:04;;;;;;;1.67;1.20;;;;;;;6.07;76.84;94530.94;6149252;23;20190;-84
2023/11/12 05:26:31;;;;;;;1.10;1.00;;;;;;;6.06;76.17;94516.59;6149247;23;20550;-84
2023/11/12 05:28:58;;;;;;;1.60;1.17;;;;;;;6.08;75.88;94509.53;6149347;23;20201;-84
2023/11/12 05:31:25;;;;;;;1.20;1.10;;;;;;;6.01;76.04;94512.97;6149806;23;20199;-85
2023/11/12 05:33:53;;;;;;;1.37;1.27;;;;;;;6.02;75.93;94512.78;6149875;23;20179;-84
2023/11/12 05:36:20;;;;;;;1.07;1.00;;;;;;;6.01;76.67;94518.06;6149395;23;20194;-84
2023/11/12 05:38:47;;;;;;;1.20;1.10;;;;;;;6.05;76.41;94514.22;6149947;23;20202;-84
2023/11/12 05:41:13;;;;;;;2.13;1.30;;;;;;;6.04;76.12;94518.53;6150005;23;20580;-85
2023/11/12 05:43:39;;;;;;;1.53;1.43;;;;;;;6.04;76.17;94515.16;6150361;23;20175;-85
2023/11/12 05:46:06;;;;;;;1.97;1.40;;;;;;;6.10;76.06;94517.03;6150678;23;20534;-84
2023/11/12 05:48:32;;;;;;;1.27;1.17;;;;;;;6.05;75.98;94507.34;6149484;23;20186;-84
2023/11/12 05:51:01;;;;;;;1.20;1.10;;;;;;;6.03;76.41;94513.59;6150340;23;20202;-83
2023/11/12 05:53:28;;;;;;;2.23;1.40;;;;;;;6.01;76.20;94507.84;6094793;23;1304809;-84
2023/11/12 05:55:54;;;;;;;1.23;1.13;;;;;;;6.01;76.32;94505.31;6151455;23;20199;-84
2023/11/12 05:58:21;;;;;;;1.47;1.23;;;;;;;6.00;75.64;94501.16;6150687;23;20182;-84
2023/11/12 06:00:49;;;;;;;1.30;1.20;;;;;;;5.96;76.28;94503.28;6151318;23;20175;-84
2023/11/12 06:03:15;;;;;;;1.40;1.30;;;;;;;5.81;76.18;94521.09;6149778;23;20189;-83
2023/11/12 06:05:41;;;;;;;1.57;1.30;;;;;;;5.74;76.43;94525.31;6151378;23;20259;-84
2023/11/12 06:08:09;;;;;;;1.57;1.30;;;;;;;5.67;76.64;94523.63;6152690;23;20179;-84
2023/11/12 06:10:36;;;;;;;2.17;1.40;;;;;;;5.65;77.14;94535.75;6152842;23;20526;-84
2023/11/12 06:13:02;;;;;;;1.53;1.20;;;;;;;5.70;77.05;94533.50;6152268;23;20182;-84
2023/11/12 06:15:29;;;;;;;1.50;1.40;;;;;;;5.74;76.27;94521.97;6152406;23;20175;-83
2023/11/12 06:17:55;;;;;;;1.77;1.47;;;;;;;5.73;76.47;94513.53;6152656;23;20181;-82
2023/11/12 06:20:23;;;;;;;2.53;1.70;;;;;;;5.75;76.27;94523.56;6151604;23;20175;-83
2023/11/12 06:22:49;;;;;;;2.47;1.60;;;;;;;5.74;76.43;94527.09;6152669;23;20182;-82
2023/11/12 06:25:17;;;;;;;2.20;1.40;;;;;;;5.69;76.83;94529.34;6152118;23;20174;-82
2023/11/12 06:27:44;;;;;;;1.30;1.20;;;;;;;5.75;76.41;94542.25;6152572;23;20193;-83
2023/11/12 06:30:11;;;;;;;1.47;1.37;;;;;;;5.80;76.48;94534.03;6152776;23;20198;-82
2023/11/12 06:32:38;;;;;;;1.33;1.23;;;;;;;5.79;76.25;94543.44;6152703;23;20179;-82
2023/11/12 06:35:05;;;;;;;1.33;1.23;;;;;;;5.68;76.84;94554.09;6151958;23;20504;-82
2023/11/12 06:37:31;;;;;;;1.50;1.40;;;;;;;5.68;76.97;94560.97;6151303;23;20713;-82
2023/11/12 06:39:58;;;;;;;1.83;1.40;;;;;;;5.68;77.63;94583.94;6152197;23;20212;-82
2023/11/12 06:42:25;;;;;;;1.40;1.30;;;;;;;5.72;77.74;94591.09;6151849;23;20823;-82
2023/11/12 06:44:52;;;;;;;6.73;2.33;;;;;;;6.07;100.00;94915.97;6152280;23;20179;-82
2023/11/12 06:47:18;;;;;;;5.27;2.40;;;;;;;6.70;100.00;95053.19;6152343;23;20511;-81
2023/11/12 06:49:45;;;;;;;2.07;1.40;;;;;;;6.97;88.31;94780.69;6151729;23;20667;-84
2023/11/12 06:52:12;;;;;;;1.33;1.23;;;;;;;6.82;76.88;94489.81;6151651;23;20265;-82
2023/11/12 06:54:39;;;;;;;1.70;1.60;;;;;;;6.68;75.77;94443.81;6152517;23;20163;-82
2023/11/12 06:57:05;;;;;;;1.50;1.40;;;;;;;6.47;76.56;94460.72;6151672;23;20229;-82
2023/11/12 06:59:33;;;;;;;1.30;1.20;;;;;;;6.45;76.65;94472.88;6153490;23;20186;-82
2023/11/12 07:01:59;;;;;;;1.50;1.40;;;;;;;6.41;76.26;94463.97;6152269;23;20182;-82
2023/11/12 07:04:26;;;;;;;1.50;1.40;;;;;;;6.43;75.56;94439.03;6151642;23;20652;-82
2023/11/12 07:06:52;;;;;;;1.77;1.67;;;;;;;6.25;76.11;94448.81;6152810;23;20195;-81
2023/11/12 07:09:19;;;;;;;1.23;1.13;;;;;;;6.15;76.60;94469.56;6153003;23;20226;-84
2023/11/12 07:11:45;;;;;;;2.70;1.50;;;;;;;6.27;76.71;94481.88;6152045;23;20267;-84
2023/11/12 07:14:12;;;;;;;1.40;1.30;;;;;;;6.34;76.32;94475.88;6151522;23;20175;-84
2023/11/12 07:16:39;;;;;;;3.70;1.47;;;;;;;6.24;75.62;94448.03;6151300;23;20592;-85
2023/11/12 07:19:06;;;;;;;1.40;1.30;;;;;;;6.13;76.26;94470.69;6152963;23;20185;-84
2023/11/12 07:21:34;;;;;;;2.10;1.27;;;;;;;5.97;78.82;94548.28;6152287;23;20171;-83
2023/11/12 07:24:00;;;;;;;1.93;1.20;;;;;;;6.06;79.17;94569.44;6151215;23;20187;-85
2023/11/12 07:26:27;;;;;;;1.53;1.30;;;;;;;6.22;79.09;94569.28;6151894;23;20199;-83
2023/11/12 07:28:54;;;;;;;1.40;1.30;;;;;;;6.00;79.60;94573.47;6152589;23;20651;-82
2023/11/12 07:31:23;;;;;;;1.60;1.30;;;;;;;5.87;80.21;94593.69;6152883;23;20217;-83
2023/11/12 07:33:51;;;;;;;1.87;1.27;;;;;;;6.01;79.66;94590.41;6152725;23;20171;-82
2023/11/12 07:36:18;;;;;;;1.47;1.37;;;;;;;6.13;79.40;94578.81;6152551;23;20195;-83
2023/11/12 07:38:45;;;;;;;1.83;1.30;;;;;;;6.21;78.24;94560.84;6152931;23;20175;-84
2023/11/12 07:41:11;;;;;;;2.07;1.87;;;;;;;6.26;78.01;94567.19;6151915;23;20183;-82
2023/11/12 07:43:38;;;;;;;1.67;1.53;;;;;;;6.34;78.30;94567.91;6152568;23;20174;-84
2023/11/12 07:46:05;;;;;;;2.40;1.90;;;;;;;6.44;77.74;94555.66;6152790;23;20195;-83
2023/11/12 07:48:32;;;;;;;2.13;1.83;;;;;;;6.49;77.61;94558.47;6152688;23;20183;-83
2023/11/12 07:51:00;;;;;;;2.13;1.97;;;;;;;6.40;78.50;94576.63;6154808;23;20195;-83
2023/11/12 07:53:27;;;;;;;3.27;2.20;;;;;;;6.25;79.84;94607.28;6154787;23;20183;-83
2023/11/12 07:55:54;;;;;;;2.07;1.80;;;;;;;6.33;79.25;94607.22;6152390;23;20384;-84
2023/11/12 07:58:22;;;;;;;2.40;1.90;;;;;;;6.32;79.29;94597.97;6153004;23;20171;-83
2023/11/12 08:00:48;;;;;;;2.67;2.10;;;;;;;6.28;80.13;94626.59;6152720;23;20908;-83
2023/11/12 08:03:15;;;;;;;2.63;2.30;;;;;;;6.22;80.26;94622.97;6152409;23;20175;-83
2023/11/12 08:05:41;;;;;;;2.40;2.20;;;;;;;6.22;80.78;94645.97;6153000;23;20199;-83
2023/11/12 08:08:09;;;;;;;2.30;2.10;;;;;;;6.18;81.52;94672.81;6159641;23;20186;-83
2023/11/12 08:10:37;;;;;;;2.03;1.90;;;;;;;6.13;82.04;94675.91;6151944;23;20182;-83
2023/11/12 08:13:03;;;;;;;2.17;1.87;;;;;;;6.14;81.55;94669.03;6152567;23;20178;-83
2023/11/12 08:15:30;;;;;;;2.73;1.80;;;;;;;6.20;80.66;94646.13;6153985;23;20186;-83
2023/11/12 08:17:56;;;;;;;2.43;1.77;;;;;;;6.41;78.80;94602.00;6152444;23;20179;-83
2023/11/12 08:20:23;;;;;;;1.97;1.80;;;;;;;6.54;77.93;94578.41;6162388;23;20189;-83
2023/11/12 08:22:49;;;;;;;1.70;1.60;;;;;;;6.69;76.93;94545.16;6165458;23;20535;-83
2023/11/12 08:25:17;;;;;;;1.70;1.60;;;;;;;6.73;75.61;94506.25;6165338;23;20179;-83
2023/11/12 08:27:44;;;;;;;2.00;1.63;;;;;;;6.82;75.48;94502.63;6166398;23;20328;-83
2023/11/12 08:30:11;;;;;;;1.90;1.67;;;;;;;6.88;74.45;94478.09;6166836;23;20583;-83
2023/11/12 08:32:38;;;;;;;1.90;1.70;;;;;;;6.80;74.90;94483.28;6167129;23;20194;-83
2023/11/12 08:35:05;;;;;;;1.87;1.77;;;;;;;6.89;75.45;94528.28;6166758;23;20627;-83
2023/11/12 08:37:32;;;;;;;3.77;2.30;;;;;;;6.99;76.30;94569.72;6168849;23;20198;-82
2023/11/12 08:39:58;;;;;;;2.73;2.30;;;;;;;7.10;77.36;94583.84;6167790;23;20178;-83
2023/11/12 08:42:27;;;;;;;2.80;2.40;;;;;;;7.18;77.05;94599.06;6167385;23;20182;-85
2023/11/12 08:44:54;;;;;;;2.43;2.23;;;;;;;7.21;77.24;94596.16;6166200;23;20230;-84
2023/11/12 08:47:21;;;;;;;3.03;2.33;;;;;;;7.24;77.96;94613.72;6165107;23;20205;-84
2023/11/12 08:49:47;;;;;;;2.57;2.07;;;;;;;7.12;84.55;94766.16;6168852;23;20190;-84
2023/11/12 08:52:14;;;;;;;2.37;2.10;;;;;;;7.16;81.01;94698.28;6168852;23;20225;-85
2023/11/12 08:54:41;;;;;;;27.83;22.53;;;;;;;7.21;79.47;94649.91;6168112;23;20163;-85
2023/11/12 08:57:09;;;;;;;7.07;5.60;;;;;;;7.24;77.96;94623.97;6167284;23;20208;-84
2023/11/12 08:59:36;;;;;;;3.17;2.47;;;;;;;7.11;79.72;94665.56;6168552;23;20178;-85
2023/11/12 09:02:03;;;;;;;3.17;2.57;;;;;;;7.11;80.64;94700.59;6166971;23;20663;-84
2023/11/12 09:04:30;;;;;;;2.23;2.03;;;;;;;7.21;80.62;94699.34;6167204;23;20179;-85
2023/11/12 09:06:56;;;;;;;2.30;2.10;;;;;;;7.29;79.29;94667.75;6168198;23;20208;-84
2023/11/12 09:09:22;;;;;;;2.90;1.80;;;;;;;7.12;80.95;94712.41;6167827;23;20185;-85
2023/11/12 09:11:49;;;;;;;2.27;2.07;;;;;;;6.99;81.77;94719.91;6166991;23;20228;-84
2023/11/12 09:14:16;;;;;;;2.57;2.37;;;;;;;7.12;81.59;94728.53;6166651;23;20183;-84
2023/11/12 09:16:46;;;;;;;9.70;7.43;;;;;;;7.19;79.81;94690.25;6167775;23;20199;-85
2023/11/12 09:19:13;;;;;;;10.83;8.73;;;;;;;7.20;80.02;94695.19;6167788;23;20206;-84
2023/11/12 09:21:39;;;;;;;4.27;3.87;;;;;;;7.33;79.87;94696.31;6167750;23;20175;-85
2023/11/12 09:24:07;;;;;;;2.97;2.70;;;;;;;7.55;80.30;94726.16;6166195;23;20179;-85
2023/11/12 09:26:34;;;;;;;2.67;2.33;;;;;;;7.58;78.52;94675.34;6166991;23;20194;-85
2023/11/12 09:29:00;;;;;;;2.70;2.50;;;;;;;7.68;80.16;94730.66;6164002;23;20175;-85
2023/11/12 09:31:27;;;;;;;3.43;2.27;;;;;;;7.60;78.03;94668.28;6166207;23;20195;-85
2023/11/12 09:33:54;;;;;;;2.70;2.50;;;;;;;7.86;78.04;94677.25;6165753;23;20444;-85
2023/11/12 09:36:21;;;;;;;2.50;2.30;;;;;;;8.02;76.74;94651.38;6164686;23;20218;-85
2023/11/12 09:38:47;;;;;;;2.53;2.33;;;;;;;8.15;75.57;94625.03;6166020;23;20181;-85
2023/11/12 09:41:15;;;;;;;3.17;2.23;;;;;;;8.20;75.77;94615.03;6167739;23;20186;-85
2023/11/12 09:43:42;;;;;;;3.20;2.60;;;;;;;7.95;75.41;94610.28;6167981;23;20183;-85
2023/11/12 09:46:08;;;;;;;2.60;2.40;;;;;;;7.92;76.13;94633.72;6167796;23;20209;-85
2023/11/12 09:48:36;;;;;;;2.87;2.40;;;;;;;7.98;76.68;94652.69;6167276;23;20206;-84
2023/11/12 09:51:05;;;;;;;2.60;2.40;;;;;;;7.99;76.05;94628.66;6167515;23;20598;-85
2023/11/12 09:53:33;;;;;;;2.70;2.47;;;;;;;8.11;75.52;94628.94;6167037;23;20206;-85
2023/11/12 09:56:04;;;;;;;3.53;2.97;;;;;;;8.20;75.83;94630.41;6167332;23;20194;-85
2023/11/12 09:58:31;;;;;;;3.00;2.77;;;;;;;8.30;75.34;94623.19;6167245;23;20164;-84
2023/11/12 10:00:59;;;;;;;3.30;3.00;;;;;;;8.34;74.61;94603.91;6167564;23;20508;-84
2023/11/12 10:03:26;;;;;;;3.13;2.90;;;;;;;8.35;73.84;94577.31;6168005;23;20625;-85
2023/11/12 10:05:52;;;;;;;5.70;3.40;;;;;;;8.34;73.91;94573.16;6167816;23;20202;-85
2023/11/12 10:08:20;;;;;;;7.43;3.10;;;;;;;8.42;73.61;94570.44;6166510;23;20175;-84
2023/11/12 10:10:47;;;;;;;2.97;2.77;;;;;;;8.49;73.73;94578.16;6167460;23;20249;-85
2023/11/12 10:13:14;;;;;;;3.73;3.30;;;;;;;8.50;72.80;94552.31;6169386;23;20693;-85
2023/11/12 10:15:40;;;;;;;3.57;2.90;;;;;;;8.50;72.83;94549.75;6169056;23;20202;-84
2023/11/12 10:18:07;;;;;;;2.80;2.60;;;;;;;8.38;73.30;94564.09;6167423;23;20219;-85
2023/11/12 10:20:38;;;;;;;3.30;3.00;;;;;;;8.31;72.86;94550.41;6167196;23;20178;-84
2023/11/12 10:23:05;;;;;;;2.90;2.67;;;;;;;8.25;73.74;94579.38;6166115;23;20163;-85
2023/11/12 10:25:43;;;;;;;3.17;2.87;;;;;;;8.32;73.64;94578.47;6168588;23;20174;-85
2023/11/12 10:28:11;;;;;;;4.33;3.30;;;;;;;8.26;73.35;94563.81;6166036;23;20194;-84
2023/11/12 10:30:38;;;;;;;5.70;3.27;;;;;;;8.23;72.93;94559.06;6168019;23;20189;-84
2023/11/12 10:33:19;;;;;;;3.37;3.07;;;;;;;8.34;73.29;94569.78;6167769;23;20214;-84
2023/11/12 10:35:47;;;;;;;3.90;3.50;;;;;;;8.39;72.08;94540.03;6166446;23;20320;-85
2023/11/12 10:38:15;;;;;;;92.90;70.57;;;;;;;8.34;71.63;94516.72;6166327;23;20178;-85
2023/11/12 10:41:01;;;;;;;6.83;5.87;;;;;;;8.42;71.64;94524.28;6167407;23;20210;-85
2023/11/12 10:43:29;;;;;;;4.40;4.00;;;;;;;8.48;71.76;94536.34;6165073;23;20171;-85
2023/11/12 10:45:58;;;;;;;4.20;3.80;;;;;;;8.58;72.10;94548.84;6167255;23;20226;-84
2023/11/12 10:48:31;;;;;;;3.70;3.40;;;;;;;8.68;71.28;94520.25;6165923;23;20183;-85
2023/11/12 10:51:00;;;;;;;3.80;3.50;;;;;;;8.48;72.00;94538.09;6167277;23;20183;-85
2023/11/12 10:53:27;;;;;;;3.93;3.40;;;;;;;8.57;71.76;94542.91;6165090;23;20198;-84
2023/11/12 10:55:55;;;;;;;4.20;3.10;;;;;;;8.64;71.86;94548.88;6164972;23;20577;-84
2023/11/12 10:58:25;;;;;;;3.67;2.87;;;;;;;8.75;71.67;94532.13;6166733;23;20181;-84
2023/11/12 11:00:55;;;;;;;5.47;3.30;;;;;;;8.75;71.16;94503.91;6166097;23;20199;-84
2023/11/12 11:03:23;;;;;;;3.17;2.87;;;;;;;8.78;71.08;94506.09;6165977;23;20186;-83
2023/11/12 11:05:51;;;;;;;3.03;2.77;;;;;;;8.84;71.20;94507.13;6166165;23;20218;-84
2023/11/12 11:08:17;;;;;;;3.43;3.13;;;;;;;8.84;71.90;94525.88;6164561;23;20189;-85
2023/11/12 11:10:44;;;;;;;3.40;3.10;;;;;;;8.83;72.95;94552.53;6164650;23;20178;-84
2023/11/12 11:13:10;;;;;;;3.73;3.20;;;;;;;8.89;71.65;94525.28;6165848;23;20198;-84
2023/11/12 11:15:47;;;;;;;8.27;6.80;;;;;;;8.83;71.14;94501.19;6164514;23;20179;-84
2023/11/12 11:18:51;;;;;;;15.60;13.17;;;;;;;8.79;69.25;94433.25;6165010;23;20165;-84
2023/11/12 11:21:19;;;;;;;5.63;5.13;;;;;;;8.72;69.61;94445.28;6164673;23;20209;-84
2023/11/12 11:23:49;;;;;;;3.90;3.30;;;;;;;8.67;70.00;94475.84;6163492;23;20175;-84
2023/11/12 11:26:26;;;;;;;3.17;2.80;;;;;;;8.72;70.17;94480.41;6164803;23;20198;-84
2023/11/12 11:29:17;;;;;;;2.83;2.63;;;;;;;8.77;69.88;94472.94;6164245;23;20486;-84
2023/11/12 11:32:19;;;;;;;3.03;2.73;;;;;;;8.80;69.58;94465.63;6164891;23;20171;-84
2023/11/12 11:34:48;;;;;;;4.50;2.80;;;;;;;8.82;69.83;94463.69;6164815;23;20213;-84
2023/11/12 11:37:14;;;;;;;3.00;2.60;;;;;;;8.84;69.23;94440.38;6164243;23;20277;-84
2023/11/12 11:39:41;;;;;;;2.53;2.33;;;;;;;8.84;69.09;94430.91;6165554;23;20237;-84
2023/11/12 11:42:18;;;;;;;2.80;2.60;;;;;;;8.85;68.72;94421.44;6165224;23;20185;-84